createdAt,value
2022-09-26T00:00:09.096Z,13.00
2022-09-26T00:02:35.745Z,13.00
2022-09-26T00:05:02.405Z,13.00
2022-09-26T00:07:28.961Z,13.00
2022-09-26T00:09:55.601Z,13.00
2022-09-26T00:12:22.329Z,13.10
2022-09-26T00:14:48.860Z,12.90
2022-09-26T00:17:15.400Z,12.90
2022-09-26T00:19:42.141Z,12.70
2022-09-26T00:22:08.880Z,12.70
2022-09-26T00:24:35.531Z,12.60
2022-09-26T00:27:02.234Z,12.50
2022-09-26T00:29:28.946Z,12.30
2022-09-26T00:31:55.712Z,12.20
2022-09-26T00:34:22.298Z,12.10
2022-09-26T00:36:49.017Z,12.00
2022-09-26T00:39:16.415Z,11.90
2022-09-26T00:41:43.701Z,12.00
2022-09-26T00:44:29.300Z,12.00
2022-09-26T00:46:55.918Z,12.20
2022-09-26T00:49:25.601Z,12.30
2022-09-26T00:51:57.205Z,12.30
2022-09-26T00:54:24.454Z,12.40
2022-09-26T00:56:53.584Z,12.50
2022-09-26T00:59:25.231Z,12.60
2022-09-26T01:01:52.759Z,12.60
2022-09-26T01:04:20.090Z,12.70
2022-09-26T01:06:46.789Z,12.80
2022-09-26T01:09:14.348Z,12.90
2022-09-26T01:11:42.105Z,12.90
2022-09-26T01:14:10.062Z,13.00
2022-09-26T01:16:40.416Z,13.10
2022-09-26T01:19:14.229Z,13.20
2022-09-26T01:21:46.956Z,13.50
2022-09-26T01:24:16.631Z,13.90
2022-09-26T01:26:56.126Z,14.20
2022-09-26T01:29:39.223Z,14.40
2022-09-26T01:32:30.891Z,14.60
2022-09-26T01:34:57.413Z,14.50
2022-09-26T01:37:30.227Z,14.30
2022-09-26T01:40:08.118Z,14.20
2022-09-26T01:42:34.618Z,14.00
2022-09-26T01:45:06.810Z,14.20
2022-09-26T01:47:43.996Z,14.40
2022-09-26T01:50:23.830Z,14.80
2022-09-26T01:52:58.889Z,14.70
2022-09-26T01:55:28.867Z,14.50
2022-09-26T01:57:58.422Z,14.70
2022-09-26T02:00:25.237Z,14.90
2022-09-26T02:02:53.056Z,14.80
2022-09-26T02:05:32.867Z,14.60
2022-09-26T02:08:03.391Z,14.30
2022-09-26T02:10:35.847Z,14.10
2022-09-26T02:13:09.402Z,14.10
2022-09-26T02:15:36.858Z,14.10
2022-09-26T02:18:10.313Z,13.90
2022-09-26T02:20:37.963Z,14.10
2022-09-26T02:23:05.008Z,14.60
2022-09-26T02:25:31.795Z,14.70
2022-09-26T02:27:58.574Z,14.70
2022-09-26T02:30:25.153Z,14.90
2022-09-26T02:32:51.700Z,14.90
2022-09-26T02:35:37.096Z,14.60
2022-09-26T02:38:04.503Z,14.50
2022-09-26T02:40:42.440Z,14.40
2022-09-26T02:43:23.253Z,14.40
2022-09-26T02:46:03.507Z,14.30
2022-09-26T02:48:43.789Z,14.10
2022-09-26T02:51:16.500Z,13.90
2022-09-26T02:53:53.151Z,13.80
2022-09-26T02:56:23.530Z,13.50
2022-09-26T02:58:53.067Z,13.40
2022-09-26T03:01:37.313Z,13.30
2022-09-26T03:04:14.750Z,13.10
2022-09-26T03:06:44.219Z,12.90
2022-09-26T03:09:12.235Z,12.70
2022-09-26T03:11:39.410Z,12.50
2022-09-26T03:14:07.711Z,12.30
2022-09-26T03:16:35.779Z,12.10
2022-09-26T03:19:02.408Z,11.90
2022-09-26T03:21:29.062Z,11.80
2022-09-26T03:23:58.214Z,11.60
2022-09-26T03:26:26.598Z,11.50
2022-09-26T03:28:54.091Z,11.30
2022-09-26T03:31:25.172Z,11.20
2022-09-26T03:33:52.120Z,11.10
2022-09-26T03:36:18.825Z,11.00
2022-09-26T03:38:45.371Z,11.00
2022-09-26T03:41:11.947Z,10.90
2022-09-26T03:43:39.124Z,10.80
2022-09-26T03:46:06.747Z,10.80
2022-09-26T03:48:33.880Z,10.70
2022-09-26T03:51:07.662Z,10.60
2022-09-26T03:53:38.974Z,10.60
2022-09-26T03:56:10.202Z,10.50
2022-09-26T03:58:37.157Z,10.40
2022-09-26T04:01:11.042Z,10.40
2022-09-26T04:03:38.679Z,10.40
2022-09-26T04:06:06.332Z,10.30
2022-09-26T04:08:32.846Z,10.30
2022-09-26T04:11:03.819Z,10.20
2022-09-26T04:16:17.813Z,10.10
2022-09-26T04:18:44.421Z,10.10
2022-09-26T04:21:14.099Z,10.10
2022-09-26T04:23:41.778Z,10.10
2022-09-26T04:26:13.109Z,10.10
2022-09-26T04:28:40.503Z,10.10
2022-09-26T04:31:07.781Z,10.10
2022-09-26T04:33:34.387Z,10.00
2022-09-26T04:36:05.152Z,10.00
2022-09-26T04:38:34.863Z,10.00
2022-09-26T04:41:04.722Z,9.90
2022-09-26T04:43:31.976Z,9.90
2022-09-26T04:45:58.805Z,9.80
2022-09-26T04:48:25.828Z,9.80
2022-09-26T04:50:52.440Z,9.80
2022-09-26T04:53:19.308Z,9.80
2022-09-26T04:55:46.622Z,9.90
2022-09-26T04:58:13.964Z,9.90
2022-09-26T05:00:49.937Z,10.00
2022-09-26T05:03:17.060Z,10.20
2022-09-26T05:05:45.249Z,10.40
2022-09-26T05:08:11.992Z,10.70
2022-09-26T05:10:38.640Z,11.10
2022-09-26T05:13:07.568Z,11.50
2022-09-26T05:15:39.900Z,11.70
2022-09-26T05:18:07.815Z,11.90
2022-09-26T05:20:35.243Z,11.90
2022-09-26T05:23:02.446Z,12.10
2022-09-26T05:25:49.426Z,12.30
2022-09-26T05:28:16.283Z,12.40
2022-09-26T05:30:43.470Z,12.40
2022-09-26T05:33:12.944Z,12.50
2022-09-26T05:35:40.351Z,12.40
2022-09-26T05:38:07.010Z,12.20
2022-09-26T05:40:52.483Z,12.00
2022-09-26T05:43:19.107Z,11.80
2022-09-26T05:45:49.311Z,11.60
2022-09-26T05:48:17.285Z,11.50
2022-09-26T05:50:44.237Z,11.60
2022-09-26T05:53:10.804Z,11.50
2022-09-26T05:55:37.853Z,11.50
2022-09-26T05:58:06.038Z,11.80
2022-09-26T06:00:33.911Z,12.20
2022-09-26T06:03:06.596Z,12.50
2022-09-26T06:05:34.637Z,12.70
2022-09-26T06:08:04.260Z,13.10
2022-09-26T06:10:31.127Z,13.20
2022-09-26T06:13:00.044Z,13.20
2022-09-26T06:15:26.584Z,13.10
2022-09-26T06:18:06.902Z,13.20
2022-09-26T06:20:33.786Z,13.40
2022-09-26T06:23:01.607Z,13.40
2022-09-26T06:25:29.157Z,13.20
2022-09-26T06:27:59.929Z,13.20
2022-09-26T06:30:27.085Z,13.30
2022-09-26T06:32:53.963Z,13.50
2022-09-26T06:35:21.384Z,13.70
2022-09-26T06:37:48.111Z,14.00
2022-09-26T06:40:14.868Z,14.30
2022-09-26T06:42:41.758Z,14.50
2022-09-26T06:45:09.459Z,14.50
2022-09-26T06:47:36.014Z,14.80
2022-09-26T06:50:03.299Z,15.10
2022-09-26T06:52:34.144Z,15.40
2022-09-26T06:55:02.300Z,15.20
2022-09-26T06:57:30.081Z,15.50
2022-09-26T06:59:57.170Z,15.60
2022-09-26T07:02:27.102Z,15.50
2022-09-26T07:04:53.903Z,15.30
2022-09-26T07:07:20.631Z,15.00
2022-09-26T07:09:47.198Z,15.00
2022-09-26T07:12:15.965Z,14.90
2022-09-26T07:14:43.345Z,14.80
2022-09-26T07:17:15.511Z,14.70
2022-09-26T07:19:42.491Z,14.80
2022-09-26T07:22:09.488Z,14.60
2022-09-26T07:24:36.285Z,14.50
2022-09-26T07:27:03.230Z,14.60
2022-09-26T07:29:29.739Z,14.80
2022-09-26T07:31:56.540Z,14.90
2022-09-26T07:34:24.921Z,15.10
2022-09-26T07:36:51.866Z,15.30
2022-09-26T07:39:18.458Z,15.30
2022-09-26T07:41:46.089Z,15.40
2022-09-26T07:47:18.387Z,15.50
2022-09-26T07:50:03.604Z,15.40
2022-09-26T07:52:30.729Z,15.50
2022-09-26T07:54:57.266Z,15.50
2022-09-26T07:57:24.026Z,15.50
2022-09-26T07:59:50.931Z,15.50
2022-09-26T08:02:24.909Z,15.60
2022-09-26T08:04:58.814Z,15.70
2022-09-26T08:07:27.382Z,15.70
2022-09-26T08:09:54.175Z,15.70
2022-09-26T08:12:20.788Z,15.60
2022-09-26T08:14:49.077Z,15.80
2022-09-26T08:17:16.410Z,15.90
2022-09-26T08:19:43.288Z,16.20
2022-09-26T08:22:10.073Z,16.50
2022-09-26T08:24:36.589Z,16.60
2022-09-26T08:27:03.223Z,16.60
2022-09-26T08:29:32.236Z,16.70
2022-09-26T08:32:00.883Z,16.70
2022-09-26T08:34:27.552Z,16.80
2022-09-26T08:36:54.257Z,17.00
2022-09-26T08:39:21.461Z,17.40
2022-09-26T08:41:48.204Z,18.00
2022-09-26T08:44:31.768Z,18.50
2022-09-26T08:47:04.719Z,18.60
2022-09-26T08:49:41.744Z,18.50
2022-09-26T08:52:23.746Z,19.00
2022-09-26T08:54:51.257Z,19.40
2022-09-26T08:57:17.792Z,20.00
2022-09-26T08:59:45.991Z,20.30
2022-09-26T09:02:32.896Z,20.60
2022-09-26T09:05:08.764Z,21.00
2022-09-26T09:07:35.396Z,21.30
2022-09-26T09:10:03.917Z,21.70
2022-09-26T09:12:38.970Z,22.20
2022-09-26T09:15:25.615Z,23.20
2022-09-26T09:17:58.817Z,23.50
2022-09-26T09:20:25.535Z,24.30
2022-09-26T09:22:55.094Z,24.80
2022-09-26T09:25:42.250Z,25.50
2022-09-26T09:28:09.003Z,25.90
2022-09-26T09:30:39.568Z,25.50
2022-09-26T09:33:12.103Z,25.90
2022-09-26T09:35:41.488Z,25.60
2022-09-26T09:38:10.416Z,25.60
2022-09-26T09:40:39.961Z,24.40
2022-09-26T09:43:12.626Z,24.70
2022-09-26T09:45:50.615Z,24.60
2022-09-26T09:48:17.677Z,24.80
2022-09-26T09:50:58.111Z,24.20
2022-09-26T09:53:27.397Z,23.00
2022-09-26T09:56:12.884Z,22.00
2022-09-26T09:58:47.583Z,20.70
2022-09-26T10:01:17.746Z,20.10
2022-09-26T10:03:44.259Z,19.50
2022-09-26T10:06:45.776Z,19.00
2022-09-26T10:09:35.253Z,18.40
2022-09-26T10:11:52.727Z,18.10
2022-09-26T10:14:25.074Z,17.60
2022-09-26T10:17:09.901Z,17.20
2022-09-26T10:19:37.770Z,16.90
2022-09-26T10:22:09.610Z,16.80
2022-09-26T10:24:43.231Z,16.90
2022-09-26T10:27:32.274Z,17.10
2022-09-26T10:29:59.995Z,17.40
2022-09-26T10:32:27.097Z,17.80
2022-09-26T10:35:05.638Z,17.90
2022-09-26T10:37:32.659Z,18.30
2022-09-26T10:40:17.913Z,18.80
2022-09-26T10:42:47.436Z,18.70
2022-09-26T10:45:16.013Z,19.20
2022-09-26T10:47:46.136Z,19.60
2022-09-26T10:50:17.999Z,19.40
2022-09-26T10:52:47.561Z,18.80
2022-09-26T10:55:25.386Z,18.40
2022-09-26T10:57:53.767Z,18.30
2022-09-26T11:00:22.193Z,18.40
2022-09-26T11:02:53.720Z,19.00
2022-09-26T11:05:39.244Z,19.60
2022-09-26T11:08:06.747Z,19.70
2022-09-26T11:10:34.222Z,19.70
2022-09-26T11:13:16.715Z,19.90
2022-09-26T11:16:01.943Z,20.10
2022-09-26T11:18:33.186Z,20.10
2022-09-26T11:21:23.128Z,20.40
2022-09-26T11:23:58.155Z,20.60
2022-09-26T11:26:46.279Z,21.20
2022-09-26T11:29:18.159Z,21.80
2022-09-26T11:31:45.811Z,21.90
2022-09-26T11:34:17.793Z,21.70
2022-09-26T11:37:03.592Z,22.00
2022-09-26T11:39:45.446Z,21.90
2022-09-26T11:42:15.891Z,22.60
2022-09-26T11:44:42.366Z,22.60
2022-09-26T11:47:13.042Z,22.00
2022-09-26T11:49:46.042Z,22.20
2022-09-26T11:52:24.140Z,21.80
2022-09-26T11:55:01.762Z,21.50
2022-09-26T11:57:32.923Z,21.50
2022-09-26T12:00:02.436Z,21.40
2022-09-26T12:02:39.868Z,21.10
2022-09-26T12:05:08.033Z,20.80
2022-09-26T12:07:53.559Z,20.40
2022-09-26T12:10:26.221Z,20.20
2022-09-26T12:13:12.058Z,19.70
2022-09-26T12:15:53.490Z,19.70
2022-09-26T12:18:23.719Z,19.30
2022-09-26T12:21:00.367Z,19.10
2022-09-26T12:23:26.883Z,18.90
2022-09-26T12:25:57.241Z,18.60
2022-09-26T12:28:34.078Z,18.20
2022-09-26T12:31:21.736Z,17.90
2022-09-26T12:34:07.876Z,17.50
2022-09-26T12:36:39.998Z,17.20
2022-09-26T12:39:24.793Z,17.20
2022-09-26T12:41:54.826Z,17.20
2022-09-26T12:44:37.415Z,17.30
2022-09-26T12:47:15.136Z,17.20
2022-09-26T12:49:58.140Z,16.80
2022-09-26T12:52:27.779Z,16.50
2022-09-26T12:55:13.054Z,16.40
2022-09-26T12:57:43.043Z,16.30
2022-09-26T13:00:16.664Z,16.10
2022-09-26T13:03:02.103Z,16.20
2022-09-26T13:05:47.770Z,16.40
2022-09-26T13:08:21.064Z,16.80
2022-09-26T13:10:59.821Z,16.90
2022-09-26T13:13:35.839Z,16.90
2022-09-26T13:16:21.501Z,17.00
2022-09-26T13:18:49.338Z,17.50
2022-09-26T13:21:19.255Z,17.90
2022-09-26T13:23:57.832Z,18.00
2022-09-26T13:26:30.896Z,17.70
2022-09-26T13:29:16.702Z,17.50
2022-09-26T13:31:46.248Z,17.50
2022-09-26T13:34:15.803Z,17.50
2022-09-26T13:36:43.737Z,17.40
2022-09-26T13:39:16.329Z,17.30
2022-09-26T13:41:48.535Z,17.20
2022-09-26T13:44:23.104Z,17.20
2022-09-26T13:47:09.478Z,17.30
2022-09-26T13:49:36.643Z,17.10
2022-09-26T13:52:03.364Z,16.90
2022-09-26T13:54:50.132Z,16.70
2022-09-26T13:57:30.077Z,16.90
2022-09-26T13:59:56.662Z,16.90
2022-09-26T14:02:28.312Z,16.90
2022-09-26T14:05:00.935Z,16.90
2022-09-26T14:07:58.628Z,16.80
2022-09-26T14:10:25.304Z,16.80
2022-09-26T14:13:06.492Z,16.60
2022-09-26T14:15:48.319Z,16.60
2022-09-26T14:18:25.506Z,16.50
2022-09-26T14:21:15.581Z,16.40
2022-09-26T14:23:49.278Z,16.30
2022-09-26T14:26:21.180Z,16.40
2022-09-26T14:28:52.839Z,16.40
2022-09-26T14:31:19.581Z,16.30
2022-09-26T14:33:46.792Z,16.30
2022-09-26T14:36:17.555Z,16.20
2022-09-26T14:38:48.395Z,16.20
2022-09-26T14:41:19.146Z,16.10
2022-09-26T14:43:46.930Z,16.00
2022-09-26T14:46:23.030Z,15.80
2022-09-26T14:48:56.944Z,16.10
2022-09-26T14:51:25.843Z,16.30
2022-09-26T14:53:52.363Z,16.40
2022-09-26T14:56:25.516Z,16.40
2022-09-26T14:58:52.153Z,16.40
2022-09-26T15:01:21.912Z,16.60
2022-09-26T15:04:01.355Z,16.70
2022-09-26T15:06:28.597Z,16.60
2022-09-26T15:08:55.926Z,16.40
2022-09-26T15:11:32.883Z,16.30
2022-09-26T15:14:02.960Z,16.20
2022-09-26T15:16:37.473Z,16.10
2022-09-26T15:19:20.839Z,16.00
2022-09-26T15:21:50.364Z,16.10
2022-09-26T15:24:27.772Z,16.10
2022-09-26T15:26:55.519Z,16.20
2022-09-26T15:29:22.631Z,16.20
2022-09-26T15:31:49.240Z,16.20
2022-09-26T15:34:17.301Z,16.10
2022-09-26T15:36:44.685Z,16.00
2022-09-26T15:39:29.735Z,16.00
2022-09-26T15:42:15.010Z,15.80
2022-09-26T15:44:46.258Z,16.00
2022-09-26T15:47:25.907Z,15.90
2022-09-26T15:50:10.638Z,16.00
2022-09-26T15:52:39.481Z,15.90
2022-09-26T15:55:06.590Z,15.90
2022-09-26T15:57:33.611Z,15.90
2022-09-26T16:00:00.711Z,15.90
2022-09-26T16:02:32.415Z,16.10
2022-09-26T16:04:59.371Z,16.10
2022-09-26T16:07:27.828Z,16.10
2022-09-26T16:09:55.964Z,16.00
2022-09-26T16:12:23.610Z,16.00
2022-09-26T16:14:58.533Z,16.00
2022-09-26T16:17:36.042Z,15.90
2022-09-26T16:20:22.860Z,15.90
2022-09-26T16:23:01.833Z,15.80
2022-09-26T16:25:34.681Z,15.70
2022-09-26T16:28:03.453Z,15.70
2022-09-26T16:30:30.163Z,15.60
2022-09-26T16:33:03.098Z,15.60
2022-09-26T16:35:30.556Z,15.60
2022-09-26T16:38:05.541Z,15.60
2022-09-26T16:40:35.473Z,15.60
2022-09-26T16:43:03.267Z,15.50
2022-09-26T16:45:30.204Z,15.50
2022-09-26T16:47:56.758Z,15.50
2022-09-26T16:50:33.684Z,15.40
2022-09-26T16:53:02.802Z,15.40
2022-09-26T16:55:32.388Z,15.30
2022-09-26T16:58:03.214Z,15.20
2022-09-26T17:00:52.394Z,15.20
2022-09-26T17:03:24.098Z,15.20
2022-09-26T17:05:51.680Z,15.10
2022-09-26T17:08:18.508Z,15.10
2022-09-26T17:10:46.057Z,15.10
2022-09-26T17:13:15.179Z,15.10
2022-09-26T17:15:42.743Z,15.10
2022-09-26T17:18:11.738Z,15.00
2022-09-26T17:20:41.591Z,14.90
2022-09-26T17:23:34.928Z,15.00
2022-09-26T17:25:57.813Z,15.00
2022-09-26T17:28:42.834Z,15.00
2022-09-26T17:31:14.635Z,14.90
2022-09-26T17:33:42.566Z,14.80
2022-09-26T17:36:17.692Z,14.80
2022-09-26T17:38:44.251Z,14.70
2022-09-26T17:41:12.578Z,14.70
2022-09-26T17:43:39.458Z,14.60
2022-09-26T17:46:06.391Z,14.60
2022-09-26T17:48:33.136Z,14.50
2022-09-26T17:51:02.048Z,14.40
2022-09-26T17:53:39.091Z,14.40
2022-09-26T17:56:06.672Z,14.40
2022-09-26T17:58:34.292Z,14.40
2022-09-26T18:01:02.843Z,14.40
2022-09-26T18:03:32.163Z,14.40
2022-09-26T18:05:59.413Z,14.40
2022-09-26T18:08:36.479Z,14.50
2022-09-26T18:11:04.402Z,14.40
2022-09-26T18:13:33.879Z,14.50
2022-09-26T18:16:01.132Z,14.50
2022-09-26T18:18:28.715Z,14.40
2022-09-26T18:20:57.265Z,14.50
2022-09-26T18:23:29.043Z,14.60
2022-09-26T18:25:56.909Z,14.50
2022-09-26T18:28:23.578Z,14.40
2022-09-26T18:30:56.900Z,14.60
2022-09-26T18:33:24.835Z,14.70
2022-09-26T18:35:52.179Z,14.60
2022-09-26T18:38:18.704Z,14.40
2022-09-26T18:40:54.860Z,14.20
2022-09-26T18:43:23.230Z,14.20
2022-09-26T18:45:50.429Z,14.30
2022-09-26T18:48:24.512Z,14.10
2022-09-26T18:50:51.606Z,14.00
2022-09-26T18:53:19.944Z,14.00
2022-09-26T18:56:05.013Z,14.20
2022-09-26T18:58:32.295Z,14.90
2022-09-26T19:01:01.311Z,14.70
2022-09-26T19:03:29.511Z,14.30
2022-09-26T19:06:03.900Z,13.70
2022-09-26T19:08:40.747Z,13.60
2022-09-26T19:11:12.904Z,13.30
2022-09-26T19:13:40.139Z,13.20
2022-09-26T19:16:07.093Z,13.20
2022-09-26T19:18:33.848Z,13.20
2022-09-26T19:21:01.122Z,13.30
2022-09-26T19:23:30.140Z,13.50
2022-09-26T19:25:56.861Z,13.70
2022-09-26T19:28:26.169Z,13.90
2022-09-26T19:30:53.141Z,14.10
2022-09-26T19:33:19.729Z,14.00
2022-09-26T19:35:47.281Z,14.60
2022-09-26T19:38:21.804Z,14.60
2022-09-26T19:40:49.280Z,14.30
2022-09-26T19:43:16.585Z,14.00
2022-09-26T19:45:44.207Z,14.00
2022-09-26T19:48:15.784Z,13.80
2022-09-26T19:50:43.547Z,13.30
2022-09-26T19:53:13.535Z,13.60
2022-09-26T19:55:40.119Z,13.50
2022-09-26T19:58:11.722Z,13.60
2022-09-26T20:00:41.572Z,13.50
2022-09-26T20:03:17.763Z,13.50
2022-09-26T20:05:45.542Z,13.80
2022-09-26T20:08:19.513Z,13.70
2022-09-26T20:10:46.493Z,13.30
2022-09-26T20:13:13.076Z,13.50
2022-09-26T20:15:39.798Z,13.40
2022-09-26T20:18:07.724Z,13.30
2022-09-26T20:20:35.863Z,13.40
2022-09-26T20:23:02.654Z,13.30
2022-09-26T20:25:31.418Z,13.90
2022-09-26T20:27:58.603Z,13.70
2022-09-26T20:30:44.547Z,13.40
2022-09-26T20:33:11.420Z,13.10
2022-09-26T20:35:41.011Z,12.80
2022-09-26T20:38:10.592Z,12.70
2022-09-26T20:40:37.946Z,12.80
2022-09-26T20:43:07.416Z,12.70
2022-09-26T20:45:38.575Z,12.60
2022-09-26T20:48:07.951Z,12.70
2022-09-26T20:50:37.316Z,12.70
2022-09-26T20:53:05.858Z,12.70
2022-09-26T20:55:32.403Z,12.50
2022-09-26T20:57:59.676Z,12.40
2022-09-26T21:00:26.211Z,12.60
2022-09-26T21:02:54.221Z,12.70
2022-09-26T21:05:22.771Z,12.70
2022-09-26T21:07:50.086Z,12.60
2022-09-26T21:10:24.412Z,12.90
2022-09-26T21:12:51.433Z,12.80
2022-09-26T21:15:18.297Z,12.60
2022-09-26T21:17:45.534Z,12.60
2022-09-26T21:20:22.340Z,12.60
2022-09-26T21:22:49.198Z,12.70
2022-09-26T21:25:17.373Z,12.80
2022-09-26T21:27:55.672Z,12.70
2022-09-26T21:30:22.196Z,12.70
2022-09-26T21:32:52.894Z,12.60
2022-09-26T21:35:20.499Z,12.60
2022-09-26T21:37:48.865Z,12.60
2022-09-26T21:40:15.648Z,12.60
2022-09-26T21:42:45.363Z,12.60
2022-09-26T21:45:13.807Z,12.50
2022-09-26T21:47:40.498Z,12.40
2022-09-26T21:50:08.338Z,12.60
2022-09-26T21:52:37.191Z,12.90
2022-09-26T21:55:06.149Z,12.80
2022-09-26T21:57:34.554Z,12.80
2022-09-26T22:00:02.255Z,12.90
2022-09-26T22:02:28.883Z,12.80
2022-09-26T22:04:55.526Z,12.70
2022-09-26T22:07:22.164Z,12.80
2022-09-26T22:09:48.702Z,12.70
2022-09-26T22:12:15.319Z,12.70
2022-09-26T22:14:42.432Z,12.40
2022-09-26T22:17:12.178Z,12.20
2022-09-26T22:19:39.061Z,12.30
2022-09-26T22:22:05.867Z,12.10
2022-09-26T22:24:33.198Z,12.10
2022-09-26T22:26:59.852Z,12.20
2022-09-26T22:29:27.200Z,12.10
2022-09-26T22:31:53.746Z,12.10
2022-09-26T22:34:20.893Z,12.10
2022-09-26T22:36:47.500Z,12.10
2022-09-26T22:39:14.063Z,12.10
2022-09-26T22:41:40.574Z,12.00
2022-09-26T22:44:07.082Z,12.00
2022-09-26T22:46:34.189Z,12.10
2022-09-26T22:49:01.034Z,12.10
2022-09-26T22:51:27.654Z,12.20
2022-09-26T22:53:54.341Z,12.10
2022-09-26T22:56:21.115Z,12.10
2022-09-26T22:58:49.304Z,12.10
2022-09-26T23:01:22.220Z,12.10
2022-09-26T23:03:49.184Z,12.10
2022-09-26T23:06:15.758Z,12.00
2022-09-26T23:08:42.330Z,12.00
2022-09-26T23:11:11.133Z,12.00
2022-09-26T23:13:39.084Z,12.00
2022-09-26T23:16:06.465Z,12.10
2022-09-26T23:18:34.593Z,12.10
2022-09-26T23:21:11.731Z,12.10
2022-09-26T23:23:38.634Z,12.00
2022-09-26T23:26:06.710Z,12.00
2022-09-26T23:28:33.774Z,12.00
2022-09-26T23:31:04.338Z,12.00
2022-09-26T23:33:31.122Z,12.00
2022-09-26T23:35:58.052Z,12.00
2022-09-26T23:38:29.146Z,12.00
2022-09-26T23:40:55.958Z,12.10
2022-09-26T23:43:22.772Z,12.00
2022-09-26T23:45:49.501Z,12.00
2022-09-26T23:48:16.430Z,12.10
2022-09-26T23:50:43.985Z,12.10
2022-09-26T23:53:11.047Z,12.10
2022-09-26T23:55:37.767Z,12.20
2022-09-26T23:58:04.399Z,12.20
